Time;durP1;ratioP1;P1;durP2;ratioP2;P2;SDS_P1;SDS_P2;PMS_P1;PMS_P2;Temp;Humidity;BMP_temperature;BMP_pressure;BME280_temperature;BME280_humidity;BME280_pressure;Samples;Min_cycle;Max_cycle;Signal;HPM_P1;HPM_P2
2022/07/25 00:00:05;;;;;;;4.87;4.15;;;;;;;20.72;78.04;99856.70;1816892;77;21429;-73
2022/07/25 00:02:32;;;;;;;6.10;4.53;;;;;;;20.72;78.06;99860.73;1816673;79;22468;-73
2022/07/25 00:04:59;;;;;;;9.90;4.50;;;;;;;20.72;78.08;99863.41;1816480;79;21009;-73
2022/07/25 00:07:26;;;;;;;6.50;4.58;;;;;;;20.75;78.03;99862.17;1816945;79;21401;-73
2022/07/25 00:09:53;;;;;;;6.80;4.50;;;;;;;20.77;77.87;99858.80;1834680;77;21473;-73
2022/07/25 00:12:21;;;;;;;5.72;5.12;;;;;;;20.75;77.83;99861.69;1849894;77;21152;-73
2022/07/25 00:14:48;;;;;;;6.62;4.45;;;;;;;20.74;77.94;99864.03;1849833;77;21811;-73
2022/07/25 00:17:14;;;;;;;9.65;4.87;;;;;;;20.74;77.99;99861.34;1850077;77;20894;-73
2022/07/25 00:19:42;;;;;;;5.95;4.83;;;;;;;20.74;78.01;99853.81;1849952;77;20966;-73
2022/07/25 00:22:08;;;;;;;5.08;4.58;;;;;;;20.72;77.97;99855.87;1849875;77;21048;-72
2022/07/25 00:24:35;;;;;;;7.53;5.30;;;;;;;20.72;77.91;99853.19;1840527;77;20926;-73
2022/07/25 00:27:02;;;;;;;5.58;4.97;;;;;;;20.68;77.89;99859.48;1838150;77;21794;-73
2022/07/25 00:29:30;;;;;;;7.78;5.20;;;;;;;20.64;77.89;99854.70;1849889;77;20970;-73
2022/07/25 00:31:56;;;;;;;8.80;5.37;;;;;;;20.60;77.97;99854.80;1850247;77;20927;-73
2022/07/25 00:34:23;;;;;;;5.78;5.10;;;;;;;20.57;78.09;99856.03;1850043;77;20962;-73
2022/07/25 00:36:49;;;;;;;8.18;5.37;;;;;;;20.48;78.20;99856.70;1849946;77;21095;-74
2022/07/25 00:39:15;;;;;;;6.33;5.67;;;;;;;20.41;78.49;99853.12;1849539;77;21891;-73
2022/07/25 00:41:43;;;;;;;6.83;5.97;;;;;;;20.40;78.75;99851.98;1849612;77;21306;-73
2022/07/25 00:44:23;;;;;;;7.78;5.75;;;;;;;20.41;79.00;99857.66;1848506;77;21010;-72
2022/07/25 00:46:49;;;;;;;6.53;5.65;;;;;;;20.42;79.04;99852.09;1826800;77;21069;-73
2022/07/25 00:49:15;;;;;;;7.42;5.70;;;;;;;20.40;79.03;99853.33;1850096;77;20919;-72
2022/07/25 00:51:43;;;;;;;6.42;5.83;;;;;;;20.35;79.12;99850.39;1849532;77;21889;-73
2022/07/25 00:54:10;;;;;;;6.47;5.67;;;;;;;20.29;79.25;99846.16;1849517;77;21452;-72
2022/07/25 00:56:37;;;;;;;6.65;5.97;;;;;;;20.26;79.45;99843.84;1849927;77;21393;-72
2022/07/25 00:59:05;;;;;;;6.97;5.95;;;;;;;20.26;79.58;99843.02;1849540;77;21401;-73
2022/07/25 01:01:32;;;;;;;8.80;6.00;;;;;;;20.22;79.74;99837.23;1822456;77;21007;-73
2022/07/25 01:03:58;;;;;;;8.35;6.58;;;;;;;20.20;79.87;99833.09;1789118;79;21867;-72
2022/07/25 01:06:26;;;;;;;7.70;6.17;;;;;;;20.15;79.97;99824.29;1816204;79;20962;-73
2022/07/25 01:08:54;;;;;;;9.70;6.70;;;;;;;20.15;80.15;99830.98;1816601;79;21418;-73
2022/07/25 01:11:21;;;;;;;7.03;6.33;;;;;;;20.14;80.32;99825.83;1816206;79;21369;-73
2022/07/25 01:13:47;;;;;;;9.28;7.10;;;;;;;20.15;80.48;99827.48;1844002;77;21339;-75
2022/07/25 01:16:14;;;;;;;8.88;7.08;;;;;;;20.13;80.52;99818.30;1848596;77;22098;-73
2022/07/25 01:18:41;;;;;;;9.05;6.85;;;;;;;20.12;80.62;99815.82;1819857;77;21037;-73
2022/07/25 01:21:07;;;;;;;7.95;7.10;;;;;;;20.10;80.77;99812.52;1816253;79;21037;-73
2022/07/25 01:23:34;;;;;;;10.68;7.12;;;;;;;20.12;80.86;99809.12;1816431;79;20943;-73
2022/07/25 01:26:00;;;;;;;9.40;7.30;;;;;;;20.12;80.93;99811.28;1816486;79;20985;-74
2022/07/25 01:28:27;;;;;;;8.88;7.45;;;;;;;20.13;80.97;99810.26;1816572;79;21977;-73
2022/07/25 01:30:53;;;;;;;8.18;7.37;;;;;;;20.13;81.01;99808.09;1816168;79;21418;-73
2022/07/25 01:33:21;;;;;;;8.18;7.37;;;;;;;20.11;81.01;99804.27;1816276;79;21029;-73
2022/07/25 01:35:47;;;;;;;10.28;7.95;;;;;;;20.10;81.08;99807.98;1817466;77;21002;-73
2022/07/25 01:38:14;;;;;;;10.88;8.05;;;;;;;20.11;81.11;99803.45;1816193;78;21010;-74
2022/07/25 01:40:41;;;;;;;8.00;7.20;;;;;;;20.11;81.12;99802.93;1816361;79;21982;-73
2022/07/25 01:43:08;;;;;;;7.90;6.90;;;;;;;20.13;81.21;99809.43;1816436;79;20981;-73
2022/07/25 01:45:35;;;;;;;8.73;7.47;;;;;;;20.17;81.34;99807.52;1816575;79;20938;-73
2022/07/25 01:48:01;;;;;;;7.62;6.75;;;;;;;20.20;81.24;99812.47;1842546;77;21141;-73
2022/07/25 01:50:28;;;;;;;7.97;7.00;;;;;;;20.19;81.24;99809.48;1849753;77;21409;-73
2022/07/25 01:52:54;;;;;;;7.72;7.03;;;;;;;20.21;81.17;99810.62;1817475;77;21953;-73
2022/07/25 01:55:21;;;;;;;7.85;7.03;;;;;;;20.17;81.13;99806.17;1816468;79;20977;-73
2022/07/25 01:57:48;;;;;;;7.37;6.67;;;;;;;20.15;81.13;99806.86;1816431;79;21017;-74
2022/07/25 02:00:15;;;;;;;8.58;6.70;;;;;;;20.14;81.24;99801.70;1847106;77;20990;-73
2022/07/25 02:02:42;;;;;;;7.22;6.55;;;;;;;20.13;81.26;99803.55;1850037;77;20985;-73
2022/07/25 02:05:10;;;;;;;9.55;6.78;;;;;;;20.14;81.35;99804.38;1849756;77;21916;-73
2022/07/25 02:07:37;;;;;;;7.72;7.03;;;;;;;20.17;81.47;99805.31;1848973;77;20957;-73
2022/07/25 02:10:05;;;;;;;8.30;7.45;;;;;;;20.20;81.44;99801.75;1816712;79;21456;-73
2022/07/25 02:12:31;;;;;;;7.92;7.12;;;;;;;20.22;81.43;99801.03;1816666;79;21036;-73
2022/07/25 02:14:58;;;;;;;8.60;7.50;;;;;;;20.23;81.47;99794.64;1816460;79;20981;-73
2022/07/25 02:17:25;;;;;;;11.20;8.40;;;;;;;20.24;81.40;99794.13;1843610;77;21914;-73
2022/07/25 02:19:52;;;;;;;10.38;9.30;;;;;;;20.21;81.41;99793.19;1849742;77;20966;-74
2022/07/25 02:22:18;;;;;;;11.25;8.93;;;;;;;20.21;81.52;99787.83;1849895;77;20990;-73
2022/07/25 02:24:45;;;;;;;10.80;9.80;;;;;;;20.21;81.53;99781.12;1846667;77;21619;-74
2022/07/25 02:27:11;;;;;;;9.88;8.90;;;;;;;20.21;81.45;99777.09;1816594;79;20977;-74
2022/07/25 02:29:38;;;;;;;9.80;8.80;;;;;;;20.19;81.48;99787.20;1816519;79;21955;-74
2022/07/25 02:32:05;;;;;;;9.35;8.45;;;;;;;20.19;81.53;99773.80;1816341;79;21527;-74
2022/07/25 02:34:32;;;;;;;10.15;9.10;;;;;;;20.21;81.54;99775.76;1816840;79;20970;-73
2022/07/25 02:36:59;;;;;;;10.72;9.18;;;;;;;20.20;81.58;99780.30;1816450;79;20989;-74
2022/07/25 02:39:25;;;;;;;11.75;9.43;;;;;;;20.21;81.58;99779.27;1816646;79;20982;-74
2022/07/25 02:41:51;;;;;;;12.37;9.95;;;;;;;20.19;81.72;99775.14;1817294;77;22024;-74
2022/07/25 02:44:19;;;;;;;10.70;9.68;;;;;;;20.17;81.80;99775.34;1816073;79;21112;-74
2022/07/25 02:46:46;;;;;;;12.23;10.10;;;;;;;20.17;81.88;99773.14;1817430;77;20946;-74
2022/07/25 02:49:12;;;;;;;12.05;10.18;;;;;;;20.16;82.04;99778.19;1816202;79;21005;-74
2022/07/25 02:51:39;;;;;;;11.33;10.15;;;;;;;20.18;82.12;99781.52;1816571;79;21029;-74
2022/07/25 02:54:06;;;;;;;11.78;10.35;;;;;;;20.21;82.12;99787.83;1816087;77;22312;-74
2022/07/25 02:56:32;;;;;;;11.25;10.20;;;;;;;20.23;82.15;99786.59;1816118;79;21441;-73
2022/07/25 02:58:59;;;;;;;11.90;10.65;;;;;;;20.25;82.21;99784.53;1823885;77;22195;-74
2022/07/25 03:01:26;;;;;;;13.18;11.12;;;;;;;20.27;82.23;99787.04;1816214;79;20926;-74
2022/07/25 03:03:52;;;;;;;11.43;10.28;;;;;;;20.27;82.25;99786.52;1816375;79;20994;-74
2022/07/25 03:06:19;;;;;;;11.25;10.05;;;;;;;20.29;82.26;99795.70;1816570;79;22430;-74
2022/07/25 03:08:45;;;;;;;13.53;10.60;;;;;;;20.30;82.23;99790.66;1816300;79;20961;-73
2022/07/25 03:11:13;;;;;;;11.35;10.20;;;;;;;20.32;82.21;99789.11;1789254;79;20989;-74
2022/07/25 03:13:39;;;;;;;11.57;9.70;;;;;;;20.33;82.16;99794.78;1816490;78;21017;-73
2022/07/25 03:16:06;;;;;;;11.45;10.25;;;;;;;20.32;82.14;99795.30;1822990;77;20947;-74
2022/07/25 03:18:33;;;;;;;11.63;10.53;;;;;;;20.34;82.17;99791.90;1849692;77;21817;-74
2022/07/25 03:21:01;;;;;;;13.18;11.60;;;;;;;20.38;82.17;99791.83;1849621;77;21005;-74
2022/07/25 03:23:29;;;;;;;11.90;10.78;;;;;;;20.40;82.13;99789.77;1849771;77;20918;-74
2022/07/25 03:25:56;;;;;;;12.68;10.85;;;;;;;20.38;82.08;99788.33;1818407;77;21135;-74
2022/07/25 03:28:23;;;;;;;11.15;10.03;;;;;;;20.35;82.16;99793.55;1816357;78;20943;-74
2022/07/25 03:30:51;;;;;;;12.55;10.55;;;;;;;20.34;82.29;99789.22;1816422;79;21931;-74
2022/07/25 03:33:18;;;;;;;13.18;10.55;;;;;;;20.32;82.30;99795.30;1827286;77;20934;-74
2022/07/25 03:35:45;;;;;;;12.30;11.05;;;;;;;20.36;82.40;99796.55;1849732;77;20922;-73
2022/07/25 03:38:11;;;;;;;13.20;11.80;;;;;;;20.35;82.35;99796.23;1849524;77;20990;-74
2022/07/25 03:40:38;;;;;;;12.35;11.20;;;;;;;20.37;82.37;99798.74;1837227;77;21422;-74
2022/07/25 03:43:04;;;;;;;12.28;11.08;;;;;;;20.35;82.35;99793.55;1822064;77;21878;-73
2022/07/25 03:45:31;;;;;;;12.68;10.75;;;;;;;20.34;82.41;99801.29;1822026;78;20991;-73
2022/07/25 03:47:58;;;;;;;14.80;10.80;;;;;;;20.32;82.38;99805.20;1799803;78;20947;-72
2022/07/25 03:50:24;;;;;;;11.33;10.18;;;;;;;20.30;82.40;99803.55;1801234;78;20923;-73
2022/07/25 03:52:51;;;;;;;11.75;10.60;;;;;;;20.29;82.42;99813.97;1822459;77;20991;-72
2022/07/25 03:55:17;;;;;;;12.07;10.93;;;;;;;20.27;82.32;99810.66;1822055;77;21935;-72
2022/07/25 03:57:44;;;;;;;11.73;10.43;;;;;;;20.24;82.28;99810.21;1822217;77;20967;-74
2022/07/25 04:00:11;;;;;;;12.98;11.25;;;;;;;20.21;82.33;99808.77;1822284;78;21042;-73
2022/07/25 04:02:38;;;;;;;12.80;10.55;;;;;;;20.18;82.37;99820.41;1822361;77;21003;-73
2022/07/25 04:05:06;;;;;;;13.95;10.93;;;;;;;20.18;82.45;99817.72;1822325;77;20983;-73
2022/07/25 04:07:33;;;;;;;11.57;9.80;;;;;;;20.18;82.41;99817.21;1808645;77;21715;-74
2022/07/25 04:10:00;;;;;;;12.30;10.15;;;;;;;20.16;82.35;99817.89;1789575;80;20994;-73
2022/07/25 04:12:26;;;;;;;11.60;9.75;;;;;;;20.15;82.27;99819.44;1792215;78;20947;-73
2022/07/25 04:14:53;;;;;;;10.63;9.58;;;;;;;20.12;82.27;99817.16;1795186;78;21003;-73
2022/07/25 04:17:21;;;;;;;10.43;9.40;;;;;;;20.12;82.34;99817.16;1789788;78;20987;-73
2022/07/25 04:19:48;;;;;;;10.53;9.08;;;;;;;20.11;82.36;99818.19;1736146;81;21992;-74
2022/07/25 04:22:14;;;;;;;10.58;8.88;;;;;;;20.12;82.28;99823.86;1789644;79;20931;-74
2022/07/25 04:24:41;;;;;;;11.95;9.35;;;;;;;20.13;82.20;99820.98;1751326;81;21473;-73
2022/07/25 04:27:07;;;;;;;10.48;8.90;;;;;;;20.12;82.03;99823.86;1822011;78;21408;-73
2022/07/25 04:29:34;;;;;;;10.43;9.23;;;;;;;20.12;82.03;99824.69;1799927;78;21314;-73
2022/07/25 04:32:00;;;;;;;11.05;8.85;;;;;;;20.13;82.03;99830.37;1799812;79;21542;-73
2022/07/25 04:34:27;;;;;;;9.70;8.70;;;;;;;20.16;81.96;99829.13;1799809;78;20973;-73
2022/07/25 04:36:54;;;;;;;10.03;9.08;;;;;;;20.16;81.83;99831.81;1822081;78;20979;-73
2022/07/25 04:39:20;;;;;;;10.15;8.43;;;;;;;20.15;81.66;99833.67;1799686;79;21005;-73
2022/07/25 04:41:47;;;;;;;12.03;8.28;;;;;;;20.16;81.59;99835.33;1815602;78;20927;-73
2022/07/25 04:44:13;;;;;;;11.08;8.83;;;;;;;20.19;81.48;99840.83;1787345;79;21954;-73
2022/07/25 04:46:40;;;;;;;9.95;8.95;;;;;;;20.18;81.23;99833.81;1772563;81;21482;-73
2022/07/25 04:49:08;;;;;;;9.75;8.75;;;;;;;20.18;81.21;99835.98;1772586;81;20992;-73
2022/07/25 04:51:35;;;;;;;11.68;9.43;;;;;;;20.17;81.06;99831.64;1772554;81;20987;-73
2022/07/25 04:54:01;;;;;;;11.22;9.15;;;;;;;20.18;81.09;99834.64;1816384;77;20993;-73
2022/07/25 04:56:28;;;;;;;11.65;9.78;;;;;;;20.21;81.06;99832.07;1816240;79;21948;-73
2022/07/25 04:58:55;;;;;;;11.88;9.43;;;;;;;20.21;80.96;99829.39;1822573;76;20925;-73
2022/07/25 05:01:22;;;;;;;10.10;9.08;;;;;;;20.22;80.88;99835.06;1827686;77;21416;-73
2022/07/25 05:03:48;;;;;;;11.35;10.05;;;;;;;20.21;80.64;99832.07;1840466;77;20998;-74
2022/07/25 05:06:15;;;;;;;12.05;9.35;;;;;;;20.23;80.69;99836.20;1849568;77;21061;-73
2022/07/25 05:08:42;;;;;;;14.47;9.70;;;;;;;20.29;80.67;99834.08;1849650;77;21865;-73
2022/07/25 05:11:09;;;;;;;10.90;9.65;;;;;;;20.28;80.44;99838.30;1849489;77;21068;-73
2022/07/25 05:13:37;;;;;;;12.98;9.83;;;;;;;20.30;80.31;99837.59;1849720;77;21325;-72
2022/07/25 05:16:04;;;;;;;11.15;9.95;;;;;;;20.31;80.26;99843.27;1828810;77;20986;-73
2022/07/25 05:18:35;;;;;;;11.70;9.88;;;;;;;20.32;80.08;99834.19;1816292;79;21005;-73
2022/07/25 05:21:01;;;;;;;13.38;10.53;;;;;;;20.29;79.74;99834.59;1816357;79;22274;-73
2022/07/25 05:23:29;;;;;;;12.78;10.13;;;;;;;20.27;79.68;99836.66;1816200;79;20977;-73
2022/07/25 05:25:55;;;;;;;11.57;9.68;;;;;;;20.32;79.82;99842.23;1816437;79;20982;-73
2022/07/25 05:28:22;;;;;;;10.68;9.68;;;;;;;20.36;79.74;99832.75;1816295;79;21396;-72
2022/07/25 05:30:49;;;;;;;12.63;10.13;;;;;;;20.36;79.28;99831.41;1816893;77;21467;-74
2022/07/25 05:33:16;;;;;;;11.83;10.05;;;;;;;20.34;79.29;99834.81;1779518;79;21936;-73
2022/07/25 05:35:42;;;;;;;12.05;10.13;;;;;;;20.35;79.18;99828.42;1815350;79;21023;-74
2022/07/25 05:38:09;;;;;;;11.97;9.80;;;;;;;20.37;79.00;99828.25;1815295;79;21046;-74
2022/07/25 05:40:39;;;;;;;16.82;9.73;;;;;;;20.37;78.88;99833.61;1817379;77;21108;-73
2022/07/25 05:43:06;;;;;;;12.10;10.20;;;;;;;20.40;78.90;99830.01;1824448;78;20938;-74
2022/07/25 05:45:33;;;;;;;11.40;9.65;;;;;;;20.42;78.38;99821.76;1800677;78;21824;-73
2022/07/25 05:47:59;;;;;;;10.80;9.43;;;;;;;20.44;78.29;99821.07;1810960;78;21006;-73
2022/07/25 05:50:25;;;;;;;12.65;9.90;;;;;;;20.50;78.14;99815.75;1795243;80;20928;-74
2022/07/25 05:52:52;;;;;;;10.70;9.10;;;;;;;20.62;78.16;99817.85;1789110;80;20977;-74
2022/07/25 05:55:19;;;;;;;12.15;9.73;;;;;;;20.72;77.62;99815.62;1801185;79;20988;-74
2022/07/25 05:57:46;;;;;;;10.45;8.98;;;;;;;20.75;77.30;99817.89;1801070;79;22554;-73
2022/07/25 06:00:13;;;;;;;12.25;9.08;;;;;;;20.80;77.11;99819.47;1827318;78;20972;-74
2022/07/25 06:02:39;;;;;;;10.30;9.20;;;;;;;20.85;76.87;99815.68;1795002;80;21039;-73
2022/07/25 06:05:07;;;;;;;10.50;9.40;;;;;;;20.88;76.61;99809.08;1794888;79;21057;-74
2022/07/25 06:07:33;;;;;;;11.83;9.28;;;;;;;20.95;76.77;99808.59;1800531;78;21469;-73
2022/07/25 06:09:59;;;;;;;10.35;9.28;;;;;;;21.02;76.34;99809.41;1739829;81;21990;-73
2022/07/25 06:12:26;;;;;;;10.50;9.30;;;;;;;21.04;75.90;99799.31;1794944;80;20928;-73
2022/07/25 06:14:52;;;;;;;12.58;9.00;;;;;;;21.07;75.45;99799.72;1757945;81;21052;-74
2022/07/25 06:17:19;;;;;;;13.25;9.50;;;;;;;21.07;75.08;99799.72;1775247;79;21023;-73
2022/07/25 06:19:46;;;;;;;12.73;9.43;;;;;;;21.10;75.17;99801.98;1801424;79;20940;-73
2022/07/25 06:22:12;;;;;;;9.68;8.73;;;;;;;21.13;74.98;99801.60;1801022;79;22717;-74
2022/07/25 06:24:39;;;;;;;9.23;8.20;;;;;;;21.18;74.73;99798.80;1799902;79;21396;-73
2022/07/25 06:27:07;;;;;;;11.00;8.25;;;;;;;21.23;74.41;99801.69;1801138;79;20952;-74
2022/07/25 06:29:33;;;;;;;11.33;9.05;;;;;;;21.21;73.29;99794.36;1801094;79;22251;-73
2022/07/25 06:32:01;;;;;;;9.53;8.00;;;;;;;21.21;73.32;99797.05;1827508;78;20968;-73
2022/07/25 06:34:28;;;;;;;10.72;8.80;;;;;;;21.28;73.57;99800.09;1822872;78;22323;-75
2022/07/25 06:36:56;;;;;;;9.53;8.48;;;;;;;21.34;73.27;99803.31;1812730;78;20928;-73
2022/07/25 06:39:24;;;;;;;10.78;8.58;;;;;;;21.48;73.37;99794.72;1827397;77;21469;-73
2022/07/25 06:41:51;;;;;;;11.48;8.25;;;;;;;21.56;72.26;99791.83;1819393;78;21478;-74
2022/07/25 06:44:17;;;;;;;11.20;8.10;;;;;;;21.59;72.12;99786.03;1815345;79;20935;-73
2022/07/25 06:46:43;;;;;;;9.40;7.80;;;;;;;21.64;72.15;99790.28;1815686;79;21881;-73
2022/07/25 06:49:12;;;;;;;8.70;7.90;;;;;;;21.72;72.11;99794.63;1815322;77;21412;-73
2022/07/25 06:51:38;;;;;;;8.08;7.28;;;;;;;21.85;72.13;99797.29;1815711;79;21465;-74
2022/07/25 06:54:04;;;;;;;9.20;8.10;;;;;;;21.93;71.03;99797.59;1815339;77;20976;-73
2022/07/25 06:56:32;;;;;;;8.68;7.42;;;;;;;21.95;70.73;99800.38;1814897;79;21003;-75
2022/07/25 06:58:59;;;;;;;9.85;7.45;;;;;;;21.99;70.92;99806.97;1745634;79;21925;-74
2022/07/25 07:01:25;;;;;;;9.75;6.95;;;;;;;22.01;70.64;99802.75;1767218;81;20945;-73
2022/07/25 07:03:52;;;;;;;8.78;7.00;;;;;;;22.03;70.04;99804.71;1815357;79;20987;-74
2022/07/25 07:06:19;;;;;;;8.08;6.97;;;;;;;22.04;69.73;99810.91;1815339;77;20944;-74
2022/07/25 07:08:47;;;;;;;7.55;6.75;;;;;;;22.03;69.51;99805.23;1815304;79;20905;-74
2022/07/25 07:11:15;;;;;;;7.97;7.05;;;;;;;22.08;69.69;99807.61;1815328;79;22277;-74
2022/07/25 07:13:43;;;;;;;9.95;6.70;;;;;;;22.26;69.88;99812.33;1812749;77;21007;-72
2022/07/25 07:16:10;;;;;;;7.08;6.37;;;;;;;22.36;68.59;99810.02;1788596;79;21073;-72
2022/07/25 07:18:37;;;;;;;10.90;6.62;;;;;;;22.35;67.53;99810.23;1815325;79;21141;-73
2022/07/25 07:21:05;;;;;;;9.20;6.58;;;;;;;22.37;67.90;99808.16;1815342;77;21023;-72
2022/07/25 07:23:31;;;;;;;6.80;6.20;;;;;;;22.47;67.75;99807.19;1815533;77;21840;-73
2022/07/25 07:25:58;;;;;;;8.45;6.03;;;;;;;22.51;67.09;99803.87;1815155;77;20936;-72
2022/07/25 07:28:24;;;;;;;8.53;6.53;;;;;;;22.53;66.43;99807.69;1815561;77;20928;-72
2022/07/25 07:30:51;;;;;;;8.15;6.37;;;;;;;22.52;66.33;99806.04;1808998;79;21086;-72
2022/07/25 07:33:17;;;;;;;7.08;6.05;;;;;;;22.56;66.26;99805.91;1815336;79;21182;-72
2022/07/25 07:35:45;;;;;;;7.08;6.15;;;;;;;22.60;66.30;99807.15;1815287;77;21791;-72
2022/07/25 07:38:12;;;;;;;8.55;6.78;;;;;;;22.62;65.64;99813.14;1815163;79;20995;-72
2022/07/25 07:40:38;;;;;;;7.42;6.28;;;;;;;22.56;65.25;99816.16;1815625;79;20963;-72
2022/07/25 07:43:05;;;;;;;7.97;6.20;;;;;;;22.51;65.54;99813.29;1826714;78;20971;-72
2022/07/25 07:45:32;;;;;;;11.33;6.47;;;;;;;22.57;65.74;99818.32;1805042;78;20970;-72
2022/07/25 07:47:59;;;;;;;7.12;6.42;;;;;;;22.64;65.13;99812.92;1826239;77;21898;-72
2022/07/25 07:50:26;;;;;;;6.30;5.70;;;;;;;22.66;65.02;99818.39;1805113;78;20962;-72
2022/07/25 07:52:54;;;;;;;9.08;6.22;;;;;;;22.65;64.45;99820.78;1805539;78;21535;-72
2022/07/25 07:58:06;;;;;;;7.47;6.20;;;;;;;22.52;64.48;99814.12;1784177;79;21344;-74
2022/07/25 08:00:37;;;;;;;6.80;5.92;;;;;;;22.54;64.41;99820.10;1802775;78;21905;-72
2022/07/25 08:03:06;;;;;;;8.18;6.47;;;;;;;22.54;64.34;99819.58;1830649;77;20923;-72
2022/07/25 08:05:38;;;;;;;8.78;6.25;;;;;;;22.56;64.33;99818.02;1816854;78;21461;-72
2022/07/25 08:08:06;;;;;;;7.20;5.80;;;;;;;22.62;64.78;99820.39;1798121;79;21390;-72
2022/07/25 08:10:35;;;;;;;8.75;6.33;;;;;;;22.62;64.71;99821.22;1797890;79;21002;-73
2022/07/25 08:13:16;;;;;;;6.65;5.95;;;;;;;22.60;64.73;99819.27;1797855;78;21928;-73
2022/07/25 08:15:46;;;;;;;14.83;6.40;;;;;;;22.54;64.15;99826.31;1798247;78;21092;-74
2022/07/25 08:18:13;;;;;;;8.80;6.60;;;;;;;22.41;64.27;99826.89;1798122;79;21512;-73
2022/07/25 08:20:40;;;;;;;6.58;5.97;;;;;;;22.29;64.42;99828.04;1798132;78;21925;-73
2022/07/25 08:23:09;;;;;;;7.95;6.33;;;;;;;22.20;64.79;99835.54;1798995;78;20986;-73
2022/07/25 08:25:37;;;;;;;8.83;6.78;;;;;;;22.15;65.16;99835.33;1797838;79;22552;-73
2022/07/25 08:28:05;;;;;;;8.70;6.55;;;;;;;22.24;65.79;99843.48;1797672;78;20983;-74
2022/07/25 08:30:32;;;;;;;9.68;6.55;;;;;;;22.32;65.65;99837.05;1799092;78;20990;-73
2022/07/25 08:33:02;;;;;;;7.67;6.00;;;;;;;22.43;65.29;99836.92;1807191;78;21014;-72
2022/07/25 08:35:30;;;;;;;8.73;6.80;;;;;;;22.47;64.62;99840.30;1830602;78;21446;-72
2022/07/25 08:37:56;;;;;;;9.03;6.12;;;;;;;22.56;64.59;99841.72;1830384;78;21789;-72
2022/07/25 08:40:25;;;;;;;7.03;5.53;;;;;;;22.63;64.29;99834.98;1805464;77;21490;-72
2022/07/25 08:42:53;;;;;;;6.20;5.60;;;;;;;22.60;63.39;99831.38;1810654;77;21120;-72
2022/07/25 08:45:20;;;;;;;6.87;5.70;;;;;;;22.52;63.55;99850.45;1816497;79;21070;-72
2022/07/25 08:47:49;;;;;;;6.70;5.25;;;;;;;22.49;63.99;99852.23;1789046;79;20930;-73
2022/07/25 08:50:18;;;;;;;8.80;5.25;;;;;;;22.45;63.97;99861.75;1816375;79;21827;-72
2022/07/25 08:52:46;;;;;;;8.75;5.20;;;;;;;22.42;63.96;99848.72;1816238;79;20939;-72
2022/07/25 08:55:18;;;;;;;6.00;4.97;;;;;;;22.53;63.39;99847.55;1816299;79;21412;-72
2022/07/25 08:57:46;;;;;;;5.80;5.03;;;;;;;22.65;62.60;99845.01;1834752;77;20942;-73
2022/07/25 09:00:24;;;;;;;8.68;4.72;;;;;;;22.78;61.72;99849.53;1849676;77;21453;-73
2022/07/25 09:02:54;;;;;;;5.15;4.72;;;;;;;22.86;61.39;99853.33;1846718;76;21901;-72
2022/07/25 09:05:22;;;;;;;5.53;4.95;;;;;;;22.90;60.69;99853.23;1848877;77;21010;-72
2022/07/25 09:07:53;;;;;;;6.85;5.10;;;;;;;22.91;60.29;99854.88;1849598;77;21038;-73
2022/07/25 09:10:25;;;;;;;6.12;4.70;;;;;;;22.96;60.85;99856.39;1849600;77;21412;-72
2022/07/25 09:12:58;;;;;;;6.90;5.22;;;;;;;23.00;60.02;99857.63;1845798;77;21464;-72
2022/07/25 09:15:34;;;;;;;6.22;4.35;;;;;;;22.95;59.62;99855.27;1816403;79;20922;-72
2022/07/25 09:18:05;;;;;;;5.03;4.40;;;;;;;22.88;59.98;99849.93;1816155;79;20990;-72
2022/07/25 09:20:45;;;;;;;7.17;4.12;;;;;;;22.91;60.49;99849.48;1816235;79;21457;-73
2022/07/25 09:23:15;;;;;;;7.15;4.30;;;;;;;22.98;60.57;99842.21;1816510;79;21063;-73
2022/07/25 09:25:42;;;;;;;9.88;4.87;;;;;;;23.05;60.00;99846.19;1815621;78;21017;-73
2022/07/25 09:28:16;;;;;;;6.28;4.42;;;;;;;23.10;60.28;99841.82;1816213;79;22190;-73
2022/07/25 09:30:55;;;;;;;5.05;4.25;;;;;;;23.17;60.04;99849.88;1821293;77;21477;-73
2022/07/25 09:33:23;;;;;;;5.40;4.70;;;;;;;23.15;59.42;99857.33;1818892;77;21021;-73
2022/07/25 09:35:50;;;;;;;5.58;4.30;;;;;;;22.99;59.87;99859.19;1816864;79;21001;-73
2022/07/25 09:38:17;;;;;;;4.78;4.22;;;;;;;22.84;60.12;99852.73;1816375;79;20938;-73
2022/07/25 09:41:01;;;;;;;4.83;4.35;;;;;;;22.78;60.75;99857.61;1816287;79;21827;-72
2022/07/25 09:43:42;;;;;;;5.55;4.53;;;;;;;22.78;61.26;99857.09;1817010;79;27526;-72
2022/07/25 09:46:10;;;;;;;5.17;4.67;;;;;;;22.79;61.45;99855.22;1815171;78;21013;-72
2022/07/25 09:48:38;;;;;;;5.45;4.58;;;;;;;22.73;61.60;99859.58;1843095;77;20931;-73
2022/07/25 09:51:06;;;;;;;11.12;4.75;;;;;;;22.77;61.73;99855.92;1847195;77;20974;-73
2022/07/25 09:53:32;;;;;;;5.45;4.45;;;;;;;22.82;61.84;99858.30;1847354;77;22491;-73
2022/07/25 09:56:00;;;;;;;6.70;4.70;;;;;;;22.91;61.64;99854.88;1847327;77;20943;-73
2022/07/25 09:58:28;;;;;;;10.15;4.90;;;;;;;23.02;61.25;99854.72;1847245;77;20966;-73
2022/07/25 10:01:00;;;;;;;10.03;4.83;;;;;;;23.05;60.58;99866.39;1835776;77;20958;-73
2022/07/25 10:04:08;;;;;;;6.75;4.78;;;;;;;23.07;60.61;99862.99;1833879;77;20947;-72
2022/07/25 10:06:45;;;;;;;10.43;5.03;;;;;;;23.11;60.74;99862.85;1813632;79;22039;-72
2022/07/25 10:09:12;;;;;;;6.00;4.50;;;;;;;23.20;60.74;99854.00;1814071;79;21018;-73
2022/07/25 10:11:39;;;;;;;9.15;4.55;;;;;;;23.31;60.59;99854.64;1813882;79;20934;-73
2022/07/25 10:14:10;;;;;;;5.83;4.97;;;;;;;23.46;60.26;99857.05;1813955;78;21501;-73
2022/07/25 10:16:45;;;;;;;4.90;4.37;;;;;;;23.66;60.11;99863.97;1814552;78;21144;-72
2022/07/25 10:19:12;;;;;;;6.17;4.55;;;;;;;23.92;58.59;99862.08;1816211;77;21912;-73
2022/07/25 10:21:40;;;;;;;5.87;4.20;;;;;;;24.06;58.56;99862.28;1829192;77;21468;-73
2022/07/25 10:24:08;;;;;;;5.78;4.53;;;;;;;24.16;58.28;99859.07;1847112;77;20965;-73
2022/07/25 10:26:39;;;;;;;6.00;4.22;;;;;;;24.20;57.59;99865.13;1847380;77;20943;-73
2022/07/25 10:29:09;;;;;;;4.95;4.30;;;;;;;24.25;57.47;99858.55;1847373;77;21117;-73
2022/07/25 10:31:42;;;;;;;5.00;4.50;;;;;;;24.26;57.06;99852.63;1823809;77;22206;-73
2022/07/25 10:34:09;;;;;;;5.20;4.12;;;;;;;24.32;57.47;99853.12;1821141;77;21470;-73
2022/07/25 10:36:46;;;;;;;4.87;4.28;;;;;;;24.57;57.99;99847.64;1847467;77;20981;-73
2022/07/25 10:39:15;;;;;;;4.67;4.28;;;;;;;24.88;58.03;99843.92;1824096;77;21065;-72
2022/07/25 10:41:51;;;;;;;4.80;4.10;;;;;;;25.26;55.66;99836.05;1814515;79;20950;-72
2022/07/25 10:44:18;;;;;;;6.20;4.10;;;;;;;25.48;55.43;99833.63;1791091;79;21826;-72
2022/07/25 10:46:44;;;;;;;13.05;4.45;;;;;;;25.66;54.33;99829.48;1815973;79;20933;-73
2022/07/25 10:49:24;;;;;;;6.53;3.83;;;;;;;25.80;54.58;99831.48;1816170;79;21503;-72
2022/07/25 10:51:59;;;;;;;5.30;3.80;;;;;;;26.07;53.35;99834.55;1816401;79;21551;-74
2022/07/25 10:54:34;;;;;;;4.90;3.80;;;;;;;26.25;53.33;99825.77;1816309;79;20973;-73
2022/07/25 10:57:02;;;;;;;6.62;4.17;;;;;;;26.49;53.29;99830.63;1816291;77;22324;-73
2022/07/25 10:59:38;;;;;;;5.58;4.10;;;;;;;26.70;52.23;99830.51;1789496;79;20966;-74
2022/07/25 11:02:07;;;;;;;5.62;3.80;;;;;;;26.69;51.57;99822.09;1818690;77;20986;-74
2022/07/25 11:04:35;;;;;;;4.58;4.00;;;;;;;26.78;52.52;99820.65;1814489;79;21468;-72
2022/07/25 11:07:13;;;;;;;4.22;3.62;;;;;;;26.93;51.29;99814.72;1816529;79;20998;-73
2022/07/25 11:09:41;;;;;;;4.45;3.72;;;;;;;27.03;50.19;99813.58;1816353;79;21825;-72
2022/07/25 11:12:15;;;;;;;3.92;3.62;;;;;;;27.03;50.17;99812.22;1825115;77;20978;-72
2022/07/25 11:14:41;;;;;;;4.55;3.72;;;;;;;26.88;49.38;99817.84;1849509;77;21013;-73
2022/07/25 11:17:13;;;;;;;4.22;3.50;;;;;;;26.72;50.24;99809.95;1849556;77;20934;-72
2022/07/25 11:19:44;;;;;;;6.50;3.90;;;;;;;26.79;50.38;99801.97;1849662;77;21010;-72
2022/07/25 11:22:10;;;;;;;7.20;4.15;;;;;;;27.03;50.73;99793.78;1847605;77;21909;-72
2022/07/25 11:24:44;;;;;;;4.47;3.65;;;;;;;27.36;50.41;99792.99;1849614;77;20963;-73
2022/07/25 11:27:22;;;;;;;5.62;3.75;;;;;;;27.55;49.11;99801.17;1849703;77;20970;-73
2022/07/25 11:29:49;;;;;;;6.85;3.47;;;;;;;27.59;48.76;99797.42;1831824;77;20975;-74
2022/07/25 11:32:16;;;;;;;6.20;3.80;;;;;;;27.38;47.95;99792.20;1831761;77;20922;-73
2022/07/25 11:34:49;;;;;;;4.72;3.50;;;;;;;27.19;49.50;99801.63;1849714;77;21929;-73